KEWN/EWN METAR and TAF weather

Enter ICAO airport designator
Station Type Date Time Source
KEWN METAR 2021/09/23 18:01 UTC NOAA

KEWN 231801Z 34007KT 10SM OVC018 22/18 A2990 RMK AO2 LTG DSNT E AND SE T02170183


Station Type Date Time Source
KEWN Decoded METAR 2021/09/23 18:01 UTC NOAA

New Bern, Craven County Regional Airport, NC, United States (KEWN) 35-04-03N 077-02-50W 3M
Sep 23, 2021 - 02:01 PM EDT / 2021.09.23 1801 UTC
Wind: from the NNW (340 degrees) at 8 MPH (7 KT):0
Visibility: 10 mile(s):0
Sky conditions: overcast
Weather: Lightning observed
Temperature: 71.1 F (21.7 C)
Dew Point: 64.9 F (18.3 C)
Relative Humidity: 81%
Pressure (altimeter): 29.9 in. Hg (1012 hPa)
ob: KEWN 231801Z 34007KT 10SM OVC018 22/18 A2990 RMK AO2 LTG DSNT E AND SE T02170183
cycle: 18

Station Type Date Time Source
KEWN TAF 2021/09/23 18:27 UTC NOAA

TAF KEWN 231724Z 2318/2418 31006KT P6SM BKN015
TEMPO 2318/2319 BKN007
FM231900 31006KT P6SM BKN025
FM232100 33005KT P6SM BKN045
FM240300 33005KT P6SM SKC
FM241400 35008G15KT P6SM SKC

Example: see airport list